createdAt,value
2023-01-29T00:00:52.076Z,28.70
2023-01-29T00:05:53.971Z,22.30
2023-01-29T00:11:05.464Z,22.60
2023-01-29T00:16:09.054Z,24.90
2023-01-29T00:21:21.904Z,23.80
2023-01-29T00:26:34.224Z,25.20
2023-01-29T00:31:38.168Z,22.00
2023-01-29T00:36:47.042Z,25.40
2023-01-29T00:42:09.439Z,25.30
2023-01-29T00:48:13.328Z,24.90
2023-01-29T00:53:53.774Z,24.20
2023-01-29T00:59:25.748Z,21.60
2023-01-29T01:04:27.620Z,23.20
2023-01-29T01:09:53.537Z,20.50
2023-01-29T01:14:55.490Z,21.20
2023-01-29T01:21:06.192Z,21.50
2023-01-29T01:26:25.435Z,19.20
2023-01-29T01:31:27.836Z,22.40
2023-01-29T01:36:32.736Z,19.70
2023-01-29T01:41:37.549Z,18.60
2023-01-29T01:46:39.910Z,15.80
2023-01-29T01:51:49.424Z,17.10
2023-01-29T01:57:08.650Z,14.90
2023-01-29T02:02:37.830Z,12.80
2023-01-29T02:08:09.423Z,14.00
2023-01-29T02:13:18.949Z,12.60
2023-01-29T02:18:56.732Z,12.90
2023-01-29T02:25:39.884Z,13.10
2023-01-29T02:32:22.447Z,15.20
2023-01-29T02:38:35.067Z,19.30
2023-01-29T02:44:02.725Z,15.50
2023-01-29T02:50:15.919Z,16.00
2023-01-29T02:55:53.011Z,14.30
2023-01-29T03:00:59.178Z,11.00
2023-01-29T03:06:34.750Z,15.80
2023-01-29T03:11:47.001Z,13.20
2023-01-29T03:16:54.825Z,15.10
2023-01-29T03:22:03.705Z,15.60
2023-01-29T03:27:47.093Z,19.60
2023-01-29T03:33:03.353Z,14.40
2023-01-29T03:38:14.408Z,13.90
2023-01-29T03:43:44.637Z,14.30
2023-01-29T03:49:02.431Z,14.60
2023-01-29T03:59:30.144Z,19.50
2023-01-29T04:05:16.402Z,14.40
2023-01-29T04:10:39.104Z,18.80
2023-01-29T04:15:55.601Z,18.10
2023-01-29T04:22:19.466Z,15.60
2023-01-29T04:28:25.575Z,13.00
2023-01-29T04:34:30.515Z,14.30
2023-01-29T04:39:48.698Z,16.00
2023-01-29T04:44:57.346Z,11.70
2023-01-29T04:51:02.107Z,12.80
2023-01-29T04:57:26.444Z,15.30
2023-01-29T05:03:57.638Z,12.90
2023-01-29T05:09:26.213Z,12.60
2023-01-29T05:15:34.891Z,12.60
2023-01-29T05:21:56.077Z,16.80
2023-01-29T05:27:47.117Z,16.40
2023-01-29T05:32:55.744Z,15.40
2023-01-29T05:38:10.160Z,20.70
2023-01-29T05:43:23.024Z,16.00
2023-01-29T05:48:35.103Z,18.70
2023-01-29T05:54:36.494Z,14.50
2023-01-29T06:01:00.920Z,17.00
2023-01-29T06:07:22.295Z,17.70
2023-01-29T06:13:49.157Z,16.60
2023-01-29T06:20:10.250Z,20.60
2023-01-29T06:25:31.743Z,26.30
2023-01-29T06:30:36.073Z,23.30
2023-01-29T06:35:40.465Z,20.60
2023-01-29T06:41:18.713Z,22.60
2023-01-29T06:46:41.011Z,21.40
2023-01-29T06:51:58.733Z,23.80
2023-01-29T06:57:05.471Z,21.00
2023-01-29T07:02:11.722Z,25.60
2023-01-29T07:07:13.359Z,22.40
2023-01-29T07:12:15.275Z,17.40
2023-01-29T07:17:16.930Z,21.00
2023-01-29T07:22:18.498Z,16.60
2023-01-29T07:27:29.482Z,15.00
2023-01-29T07:32:30.919Z,18.60
2023-01-29T07:37:32.678Z,20.40
2023-01-29T07:42:34.560Z,17.80
2023-01-29T07:47:39.738Z,20.00
2023-01-29T07:52:41.372Z,20.30
2023-01-29T07:57:46.520Z,21.90
2023-01-29T08:02:48.130Z,20.20
2023-01-29T08:08:05.733Z,19.80
2023-01-29T08:13:08.324Z,14.90
2023-01-29T08:18:14.033Z,16.70
2023-01-29T08:23:18.235Z,18.00
2023-01-29T08:28:20.032Z,16.20
2023-01-29T08:33:29.621Z,16.50
2023-01-29T08:38:44.789Z,19.40
2023-01-29T08:43:46.316Z,21.50
2023-01-29T08:49:05.927Z,19.50
2023-01-29T08:54:10.287Z,20.20
2023-01-29T08:59:15.274Z,23.00
2023-01-29T09:04:17.014Z,23.80
2023-01-29T09:09:18.957Z,21.50
2023-01-29T09:14:23.694Z,20.30
2023-01-29T09:19:28.410Z,22.20
2023-01-29T09:24:53.339Z,18.40
2023-01-29T09:29:57.971Z,17.80
2023-01-29T09:34:59.982Z,15.40
2023-01-29T09:40:40.860Z,16.90
2023-01-29T09:47:01.321Z,13.40
2023-01-29T09:52:13.861Z,15.10
2023-01-29T09:57:23.855Z,15.50
2023-01-29T10:02:25.846Z,17.40
2023-01-29T10:08:00.711Z,18.90
2023-01-29T10:13:26.535Z,28.90
2023-01-29T10:19:12.417Z,28.70
2023-01-29T10:24:31.627Z,28.30
2023-01-29T10:29:40.938Z,26.30
2023-01-29T10:34:49.032Z,24.60
2023-01-29T10:39:58.206Z,26.20
2023-01-29T10:45:15.970Z,25.80
2023-01-29T10:50:20.669Z,25.50
2023-01-29T10:55:33.979Z,22.10
2023-01-29T11:00:40.040Z,27.70
2023-01-29T11:05:54.800Z,17.30
2023-01-29T11:11:18.446Z,16.30
2023-01-29T11:16:20.335Z,17.80
2023-01-29T11:21:23.868Z,17.90
2023-01-29T11:26:28.701Z,15.20
2023-01-29T11:31:38.246Z,15.60
2023-01-29T11:36:40.296Z,14.70
2023-01-29T11:42:11.119Z,20.80
2023-01-29T11:47:23.456Z,16.70
2023-01-29T11:52:43.147Z,18.10
2023-01-29T11:58:12.156Z,20.80
2023-01-29T12:03:23.233Z,32.80
2023-01-29T12:08:42.078Z,30.70
2023-01-29T12:13:57.070Z,25.20
2023-01-29T12:19:28.979Z,20.80
2023-01-29T12:24:37.939Z,27.90
2023-01-29T12:29:49.296Z,31.40
2023-01-29T12:34:53.088Z,23.00
2023-01-29T12:40:20.801Z,23.30
2023-01-29T12:45:27.762Z,21.40
2023-01-29T12:50:34.464Z,23.70
2023-01-29T12:55:44.203Z,25.10
2023-01-29T13:00:50.480Z,20.60
2023-01-29T13:05:57.602Z,23.30
2023-01-29T13:11:03.426Z,28.40
2023-01-29T13:16:11.497Z,24.40
2023-01-29T13:21:17.477Z,22.40
2023-01-29T13:26:32.060Z,21.70
2023-01-29T13:31:40.270Z,22.90
2023-01-29T13:36:48.569Z,25.50
2023-01-29T13:41:51.846Z,24.50
2023-01-29T13:47:09.113Z,23.00
2023-01-29T13:52:25.702Z,23.70
2023-01-29T13:57:35.632Z,20.80
2023-01-29T14:02:37.200Z,25.10
2023-01-29T14:07:49.528Z,22.70
2023-01-29T14:13:17.614Z,20.30
2023-01-29T14:18:23.591Z,20.20
2023-01-29T14:23:53.051Z,22.30
2023-01-29T14:29:16.579Z,22.60
2023-01-29T14:34:26.377Z,32.50
2023-01-29T14:45:03.558Z,26.40
2023-01-29T14:50:45.305Z,32.50
2023-01-29T14:55:50.161Z,28.60
2023-01-29T15:00:57.628Z,24.00
2023-01-29T15:06:05.049Z,23.70
2023-01-29T15:11:34.634Z,28.90
2023-01-29T15:17:04.230Z,28.20
2023-01-29T15:22:12.221Z,29.90
2023-01-29T15:27:17.665Z,27.30
2023-01-29T15:32:27.932Z,30.10
2023-01-29T15:37:36.586Z,29.70
2023-01-29T15:42:45.984Z,26.70
2023-01-29T15:47:47.944Z,29.20
2023-01-29T15:53:03.148Z,28.10
2023-01-29T15:58:06.127Z,35.80
2023-01-29T16:03:27.520Z,38.50
2023-01-29T16:08:32.167Z,35.20
2023-01-29T16:13:37.695Z,36.40
2023-01-29T16:18:54.255Z,34.70
2023-01-29T16:24:07.049Z,39.90
2023-01-29T16:29:28.453Z,47.20
2023-01-29T16:35:32.665Z,46.50
2023-01-29T16:41:14.144Z,54.80
2023-01-29T16:46:45.117Z,55.80
2023-01-29T16:52:58.349Z,55.30
2023-01-29T16:58:58.762Z,59.50
2023-01-29T17:04:32.676Z,51.70
2023-01-29T17:09:40.533Z,62.10
2023-01-29T17:15:17.407Z,50.60
2023-01-29T17:20:19.470Z,52.70
2023-01-29T17:25:23.743Z,58.00
2023-01-29T17:30:36.821Z,58.30
2023-01-29T17:35:50.556Z,66.90
2023-01-29T17:41:15.078Z,58.40
2023-01-29T17:46:18.062Z,59.20
2023-01-29T17:51:19.509Z,67.10
2023-01-29T17:56:27.021Z,58.80
2023-01-29T18:01:28.669Z,79.40
2023-01-29T18:06:30.563Z,82.50
2023-01-29T18:11:35.984Z,61.80
2023-01-29T18:16:39.326Z,56.50
2023-01-29T18:21:42.808Z,58.90
2023-01-29T18:26:44.700Z,51.00
2023-01-29T18:31:54.575Z,57.80
2023-01-29T18:37:03.818Z,62.10
2023-01-29T18:42:05.432Z,61.70
2023-01-29T18:47:09.760Z,62.50
2023-01-29T18:52:15.872Z,54.10
2023-01-29T18:58:26.067Z,56.20
2023-01-29T19:02:47.683Z,59.80
2023-01-29T19:07:49.848Z,62.80
2023-01-29T19:12:51.734Z,65.00
2023-01-29T19:17:53.518Z,53.80
2023-01-29T19:22:55.185Z,57.20
2023-01-29T19:27:56.853Z,70.60
2023-01-29T19:32:58.646Z,60.70
2023-01-29T19:38:00.737Z,55.20
2023-01-29T19:43:02.227Z,55.20
2023-01-29T19:48:03.621Z,59.10
2023-01-29T19:53:05.281Z,56.80
2023-01-29T19:58:06.536Z,69.30
2023-01-29T20:03:07.987Z,84.60
2023-01-29T20:08:10.247Z,78.20
2023-01-29T20:13:18.282Z,71.30
2023-01-29T20:18:19.624Z,76.40
2023-01-29T20:23:36.542Z,64.80
2023-01-29T20:28:39.494Z,65.10
2023-01-29T20:33:42.115Z,56.00
2023-01-29T20:38:44.189Z,63.70
2023-01-29T20:43:46.480Z,65.40
2023-01-29T20:48:49.008Z,60.30
2023-01-29T20:53:50.423Z,63.20
2023-01-29T20:58:51.836Z,63.10
2023-01-29T21:03:53.211Z,65.70
2023-01-29T21:08:55.150Z,65.20
2023-01-29T21:13:57.175Z,73.30
2023-01-29T21:18:58.732Z,65.00
2023-01-29T21:24:00.625Z,70.70
2023-01-29T21:29:02.382Z,65.00
2023-01-29T21:34:04.608Z,65.40
2023-01-29T21:39:16.003Z,60.40
2023-01-29T21:44:17.374Z,56.00
2023-01-29T21:49:22.766Z,56.00
2023-01-29T21:54:30.358Z,62.50
2023-01-29T21:59:31.967Z,63.00
2023-01-29T22:04:33.579Z,71.90
2023-01-29T22:09:43.828Z,63.10
2023-01-29T22:14:47.650Z,57.60
2023-01-29T22:19:49.505Z,65.80
2023-01-29T22:24:52.037Z,59.70
2023-01-29T22:29:53.472Z,59.60
2023-01-29T22:34:55.013Z,57.30
2023-01-29T22:39:56.625Z,63.80
2023-01-29T22:44:58.014Z,60.10
2023-01-29T22:49:59.593Z,68.50
2023-01-29T22:55:01.139Z,67.90
2023-01-29T23:00:10.416Z,63.30
2023-01-29T23:05:16.742Z,68.90
2023-01-29T23:10:21.247Z,61.50
2023-01-29T23:15:29.345Z,53.20
2023-01-29T23:20:36.618Z,52.00
2023-01-29T23:25:56.928Z,53.40
2023-01-29T23:30:58.705Z,53.10
2023-01-29T23:36:04.284Z,58.00
2023-01-29T23:41:09.002Z,56.60
2023-01-29T23:46:11.048Z,59.40
2023-01-29T23:51:12.969Z,48.20
2023-01-29T23:56:23.478Z,58.50
